createdAt,value
2023-06-07T00:01:08.662Z,15.64
2023-06-07T00:06:12.836Z,15.74
2023-06-07T00:11:16.936Z,15.87
2023-06-07T00:16:21.132Z,16.00
2023-06-07T00:21:25.293Z,16.04
2023-06-07T00:26:29.507Z,16.12
2023-06-07T00:31:33.772Z,16.16
2023-06-07T00:36:37.798Z,16.17
2023-06-07T00:41:41.945Z,16.17
2023-06-07T00:46:46.136Z,16.15
2023-06-07T00:51:50.265Z,16.17
2023-06-07T00:56:54.427Z,16.18
2023-06-07T01:01:58.625Z,16.18
2023-06-07T01:07:02.749Z,16.16
2023-06-07T01:12:06.925Z,16.11
2023-06-07T01:17:11.053Z,16.02
2023-06-07T01:22:15.234Z,15.98
2023-06-07T01:27:19.390Z,15.95
2023-06-07T01:32:23.560Z,15.96
2023-06-07T01:37:27.721Z,15.97
2023-06-07T01:42:31.886Z,16.00
2023-06-07T01:47:36.058Z,16.01
2023-06-07T01:52:40.199Z,16.01
2023-06-07T01:57:44.316Z,16.06
2023-06-07T02:02:48.504Z,16.04
2023-06-07T02:07:52.645Z,16.01
2023-06-07T02:12:56.814Z,15.99
2023-06-07T02:18:01.033Z,15.95
2023-06-07T02:23:05.155Z,15.90
2023-06-07T02:28:09.333Z,15.87
2023-06-07T02:33:13.517Z,15.81
2023-06-07T02:38:17.664Z,15.78
2023-06-07T02:43:21.758Z,15.75
2023-06-07T02:48:25.921Z,15.74
2023-06-07T02:53:30.095Z,15.71
2023-06-07T02:58:34.260Z,15.67
2023-06-07T03:03:38.570Z,15.70
2023-06-07T03:08:42.590Z,15.64
2023-06-07T03:13:44.855Z,15.61
2023-06-07T03:18:49.000Z,15.58
2023-06-07T03:23:53.192Z,15.55
2023-06-07T03:28:57.353Z,15.49
2023-06-07T03:34:01.520Z,15.45
2023-06-07T03:39:05.642Z,15.42
2023-06-07T03:44:09.818Z,15.38
2023-06-07T03:49:14.089Z,15.34
2023-06-07T03:54:18.122Z,15.26
2023-06-07T03:59:22.321Z,15.22
2023-06-07T04:04:26.540Z,15.15
2023-06-07T04:09:30.613Z,15.10
2023-06-07T04:14:34.773Z,15.04
2023-06-07T04:19:45.374Z,15.03
2023-06-07T04:24:43.090Z,15.00
2023-06-07T04:29:47.240Z,14.95
2023-06-07T04:34:51.636Z,14.80
2023-06-07T04:39:55.696Z,14.67
2023-06-07T04:44:59.746Z,14.55
2023-06-07T04:50:04.311Z,14.54
2023-06-07T04:55:08.067Z,14.48
2023-06-07T05:00:12.226Z,14.51
2023-06-07T05:05:16.406Z,14.45
2023-06-07T05:10:20.675Z,14.39
2023-06-07T05:15:24.704Z,14.30
2023-06-07T05:20:28.859Z,14.24
2023-06-07T05:25:33.006Z,14.24
2023-06-07T05:30:37.159Z,14.23
2023-06-07T05:35:41.344Z,14.30
2023-06-07T05:40:45.512Z,14.23
2023-06-07T05:45:49.666Z,14.25
2023-06-07T05:50:53.927Z,14.25
2023-06-07T05:55:57.993Z,14.32
2023-06-07T06:01:02.134Z,14.36
2023-06-07T06:06:06.289Z,14.42
2023-06-07T06:11:10.465Z,14.52
2023-06-07T06:16:14.619Z,14.53
2023-06-07T06:21:18.774Z,14.55
2023-06-07T06:26:22.908Z,14.54
2023-06-07T06:31:27.152Z,14.57
2023-06-07T06:36:31.278Z,14.55
2023-06-07T06:41:35.429Z,14.51
2023-06-07T06:46:39.600Z,14.52
2023-06-07T06:51:46.001Z,14.56
2023-06-07T06:56:47.919Z,14.60
2023-06-07T07:01:52.089Z,14.59
2023-06-07T07:06:56.229Z,14.56
2023-06-07T07:12:00.367Z,14.45
2023-06-07T07:17:04.619Z,14.37
2023-06-07T07:22:08.733Z,14.33
2023-06-07T07:27:12.869Z,14.31
2023-06-07T07:32:17.033Z,14.34
2023-06-07T07:37:21.207Z,14.43
2023-06-07T07:42:25.386Z,14.51
2023-06-07T07:47:29.601Z,14.58
2023-06-07T07:52:33.654Z,14.66
2023-06-07T07:57:37.837Z,14.70
2023-06-07T08:02:42.028Z,14.74
2023-06-07T08:07:46.160Z,14.70
2023-06-07T08:12:50.324Z,14.61
2023-06-07T08:17:54.488Z,14.68
2023-06-07T08:22:58.628Z,14.83
2023-06-07T08:28:02.784Z,14.91
2023-06-07T08:33:06.991Z,15.06
2023-06-07T08:38:11.103Z,15.07
2023-06-07T08:43:13.362Z,14.96
2023-06-07T08:48:17.553Z,14.94
2023-06-07T08:53:21.706Z,14.78
2023-06-07T08:58:25.933Z,14.85
2023-06-07T09:03:30.114Z,14.89
2023-06-07T09:08:34.181Z,15.11
2023-06-07T09:13:38.305Z,15.16
2023-06-07T09:18:42.530Z,15.37
2023-06-07T09:23:46.682Z,15.31
2023-06-07T09:28:50.872Z,15.39
2023-06-07T09:33:54.962Z,15.43
2023-06-07T09:38:59.115Z,15.50
2023-06-07T09:44:03.313Z,15.72
2023-06-07T09:49:07.519Z,15.69
2023-06-07T09:54:11.643Z,15.92
2023-06-07T09:59:15.797Z,16.15
2023-06-07T10:04:20.007Z,16.41
2023-06-07T10:09:24.098Z,16.62
2023-06-07T10:14:28.265Z,16.88
2023-06-07T10:19:32.388Z,17.17
2023-06-07T10:24:36.711Z,17.50
2023-06-07T10:29:40.713Z,17.81
2023-06-07T10:34:44.890Z,18.03
2023-06-07T10:39:49.066Z,17.85
2023-06-07T10:44:53.251Z,18.10
2023-06-07T10:49:57.409Z,18.23
2023-06-07T10:55:01.528Z,18.51
2023-06-07T11:00:05.946Z,18.95
2023-06-07T11:05:10.003Z,19.19
2023-06-07T11:10:14.054Z,19.02
2023-06-07T11:15:18.242Z,18.92
2023-06-07T11:20:22.340Z,18.83
2023-06-07T11:25:26.492Z,18.93
2023-06-07T11:30:30.671Z,19.04
2023-06-07T11:35:34.811Z,19.39
2023-06-07T11:40:39.005Z,19.30
2023-06-07T11:45:43.151Z,19.53
2023-06-07T11:50:47.274Z,19.59
2023-06-07T11:55:51.422Z,19.50
2023-06-07T12:00:55.589Z,19.38
2023-06-07T12:05:59.780Z,19.70
2023-06-07T12:11:03.954Z,19.65
2023-06-07T12:16:08.131Z,19.61
2023-06-07T12:21:12.199Z,19.58
2023-06-07T12:26:16.413Z,19.66
2023-06-07T12:31:20.657Z,19.76
2023-06-07T12:36:24.768Z,19.71
2023-06-07T12:41:28.893Z,19.57
2023-06-07T12:46:33.038Z,19.95
2023-06-07T12:51:37.222Z,19.76
2023-06-07T12:56:41.367Z,19.45
2023-06-07T13:01:45.497Z,19.31
2023-06-07T13:06:49.700Z,19.22
2023-06-07T13:11:53.817Z,19.29
2023-06-07T13:16:58.090Z,19.65
2023-06-07T13:22:02.130Z,20.10
2023-06-07T13:27:06.309Z,20.65
2023-06-07T13:32:10.547Z,20.62
2023-06-07T13:37:14.634Z,20.92
2023-06-07T13:42:18.833Z,21.08
2023-06-07T13:47:23.012Z,21.17
2023-06-07T13:52:27.101Z,21.59
2023-06-07T13:57:31.264Z,21.94
2023-06-07T14:02:35.697Z,22.17
2023-06-07T14:07:39.587Z,22.19
2023-06-07T14:12:41.847Z,22.09
2023-06-07T14:17:46.047Z,22.62
2023-06-07T14:22:50.173Z,22.69
2023-06-07T14:27:54.337Z,23.02
2023-06-07T14:32:58.496Z,23.10
2023-06-07T14:38:02.676Z,22.49
2023-06-07T14:43:04.972Z,21.91
2023-06-07T14:48:09.076Z,21.83
2023-06-07T14:53:13.243Z,21.73
2023-06-07T14:58:17.406Z,22.44
2023-06-07T15:03:21.633Z,23.16
2023-06-07T15:08:25.723Z,23.64
2023-06-07T15:13:29.930Z,23.76
2023-06-07T15:18:34.032Z,24.08
2023-06-07T15:23:38.233Z,23.59
2023-06-07T15:28:42.340Z,22.56
2023-06-07T15:33:46.477Z,21.01
2023-06-07T15:38:50.693Z,20.12
2023-06-07T15:43:54.844Z,19.88
2023-06-07T15:48:58.950Z,19.45
2023-06-07T15:54:03.163Z,19.14
2023-06-07T16:04:11.681Z,19.14
2023-06-07T16:09:15.609Z,21.00
2023-06-07T16:14:19.776Z,22.71
2023-06-07T16:19:23.937Z,24.81
2023-06-07T16:24:28.099Z,26.41
2023-06-07T16:29:32.241Z,26.38
2023-06-07T16:34:36.421Z,27.25
2023-06-07T16:39:40.605Z,27.12
2023-06-07T16:44:44.750Z,25.34
2023-06-07T16:49:48.876Z,23.70
2023-06-07T16:59:57.231Z,22.16
2023-06-07T17:05:01.376Z,21.65
2023-06-07T17:10:06.058Z,21.31
2023-06-07T17:15:09.699Z,21.12
2023-06-07T17:20:13.846Z,20.79
2023-06-07T17:25:18.004Z,20.58
2023-06-07T17:30:22.192Z,20.52
2023-06-07T17:35:26.309Z,20.43
2023-06-07T17:40:30.454Z,20.35
2023-06-07T17:45:34.767Z,20.25
2023-06-07T17:50:46.798Z,20.27
2023-06-07T17:55:42.970Z,20.18
2023-06-07T18:00:47.125Z,20.13
2023-06-07T18:05:51.259Z,20.06
2023-06-07T18:10:55.491Z,20.09
2023-06-07T18:15:59.619Z,20.13
2023-06-07T18:21:03.825Z,20.01
2023-06-07T18:26:07.927Z,19.97
2023-06-07T18:31:12.072Z,19.86
2023-06-07T18:36:16.247Z,19.74
2023-06-07T18:41:20.456Z,19.57
2023-06-07T18:51:28.720Z,19.24
2023-06-07T18:56:32.870Z,19.08
2023-06-07T19:01:50.816Z,18.94
2023-06-07T19:06:41.263Z,18.75
2023-06-07T19:11:45.391Z,18.58
2023-06-07T19:16:49.576Z,18.40
2023-06-07T19:21:53.713Z,18.15
2023-06-07T19:26:57.851Z,17.96
2023-06-07T19:32:01.983Z,17.78
2023-06-07T19:37:06.178Z,17.71
2023-06-07T19:42:10.337Z,17.61
2023-06-07T19:47:14.478Z,17.55
2023-06-07T19:52:18.647Z,17.56
2023-06-07T19:57:22.772Z,17.56
2023-06-07T20:02:27.170Z,17.58
2023-06-07T20:07:31.130Z,17.57
2023-06-07T20:12:33.384Z,17.56
2023-06-07T20:17:37.567Z,17.60
2023-06-07T20:22:41.699Z,17.58
2023-06-07T20:27:45.871Z,17.57
2023-06-07T20:32:50.137Z,17.54
2023-06-07T20:37:54.166Z,17.48
2023-06-07T20:42:58.340Z,17.46
2023-06-07T20:48:02.492Z,17.43
2023-06-07T20:53:06.647Z,17.38
2023-06-07T20:58:10.806Z,17.31
2023-06-07T21:03:15.082Z,17.26
2023-06-07T21:08:19.168Z,17.19
2023-06-07T21:13:23.285Z,17.17
2023-06-07T21:18:27.437Z,17.12
2023-06-07T21:23:31.645Z,17.03
2023-06-07T21:28:35.747Z,16.94
2023-06-07T21:33:39.958Z,16.93
2023-06-07T21:38:44.075Z,16.88
2023-06-07T21:43:48.242Z,16.83
2023-06-07T21:48:52.413Z,16.78
2023-06-07T21:53:56.561Z,16.78
2023-06-07T21:59:00.715Z,16.80
2023-06-07T22:04:04.940Z,16.79
2023-06-07T22:09:09.041Z,16.76
2023-06-07T22:14:13.212Z,16.77
2023-06-07T22:19:17.367Z,16.76
2023-06-07T22:24:21.548Z,16.72
2023-06-07T22:29:25.688Z,16.71
2023-06-07T22:34:29.831Z,16.69
2023-06-07T22:39:34.023Z,16.66
2023-06-07T22:44:38.206Z,16.66
2023-06-07T22:49:42.328Z,16.70
2023-06-07T22:54:46.552Z,16.75
2023-06-07T22:59:50.650Z,16.77
2023-06-07T23:04:54.782Z,16.82
2023-06-07T23:09:58.941Z,16.87
2023-06-07T23:15:03.180Z,16.89
2023-06-07T23:20:07.605Z,16.89
2023-06-07T23:25:11.432Z,16.94
2023-06-07T23:30:15.611Z,16.92
2023-06-07T23:35:19.741Z,16.86
2023-06-07T23:40:23.916Z,16.80
2023-06-07T23:45:28.064Z,16.75
2023-06-07T23:50:32.270Z,16.66
2023-06-07T23:55:36.431Z,16.56
